Decoded Metar for KEET (ALABASTER in AL, USA) (IATA:EET) | Meteo·Mobile Aviation Weather
aviador You're here:

KEET Decoded Metar

ALABASTER in AL, USA
Report Time2019-02-22 20:53:00
UTC Time2019-02-22 20:58:42
Flight Rules ifr IFR
Wind010° at 04 kt
W.Decomp.*RWY 34: 3.4 kt HW 2.2 kt RCW
W.Rank010° ranks 27
Current wind is below 010° avg. (5.4)
Visibility9999 m
Phenomena:N/A
Clouds:Overcast 005 Hf
Expected CloudBase > 800 ft AGL from Temp-Dew spread
Ceiling500 ft
Temp16°C (ISA +2)
Dew Point14°C (88% RH)
AAT15.8°C
QNH1020 hPa
Density Alt797 ft
Elevation568 ft
Report Wrong Elevation
Raw Report
METAR KEET 222053Z AUTO 01004KT 7SM OVC005 16/14 A3011 RMK AO2
SLP193 T01610144 56012=

Extra information for KEET:More info

Metar Taf Metar & Taf Last 4 Metars F.Rules Stats Wind Profile Meteogram Temp Stats Airport Information Weather charts Add Link Nearby VenuesMetar ALERT Operation Metar Decoded Social comments

AIRNAV info for KEET